Time;durP1;ratioP1;P1;durP2;ratioP2;P2;SDS_P1;SDS_P2;PMS_P1;PMS_P2;Temp;Humidity;BMP_temperature;BMP_pressure;BME280_temperature;BME280_humidity;BME280_pressure;Samples;Min_cycle;Max_cycle;Signal;HPM_P1;HPM_P2
2021/01/26 00:00:52;;;;;;;20.05;11.40;;;15.60;55.40;;;;;;5090151;28;20119;-60
2021/01/26 00:03:19;;;;;;;20.63;11.77;;;15.60;55.50;;;;;;5090047;28;20120;-60
2021/01/26 00:05:45;;;;;;;19.63;11.27;;;15.50;55.40;;;;;;5088801;28;20164;-60
2021/01/26 00:08:10;;;;;;;19.90;11.57;;;15.60;55.60;;;;;;5090228;28;20107;-60
2021/01/26 00:10:36;;;;;;;18.85;11.50;;;15.60;55.40;;;;;;5089045;28;20020;-59
2021/01/26 00:13:04;;;;;;;18.73;11.90;;;15.60;55.40;;;;;;5092320;28;20523;-60
2021/01/26 00:15:30;;;;;;;18.75;11.80;;;15.50;55.40;;;;;;5093962;28;20104;-58
2021/01/26 00:17:55;;;;;;;19.25;10.90;;;15.60;55.40;;;;;;5094039;28;20517;-60
2021/01/26 00:20:21;;;;;;;16.83;10.40;;;15.60;55.60;;;;;;5094258;28;20477;-60
2021/01/26 00:22:47;;;;;;;18.27;11.20;;;15.60;55.80;;;;;;5093877;28;20496;-60
2021/01/26 00:25:18;;;;;;;20.52;10.38;;;15.50;55.20;;;;;;5094077;28;20024;-59
2021/01/26 00:27:44;;;;;;;38.72;25.10;;;15.60;55.20;;;;;;5093984;28;20028;-60
2021/01/26 00:30:18;;;;;;;20.85;12.63;;;15.50;55.20;;;;;;5093836;28;20493;-60
2021/01/26 00:32:44;;;;;;;19.17;11.48;;;15.60;55.20;;;;;;5088699;28;20027;-58
2021/01/26 00:35:12;;;;;;;19.85;13.07;;;15.50;55.10;;;;;;5072224;28;20489;-61
2021/01/26 00:37:37;;;;;;;19.23;11.65;;;15.50;55.30;;;;;;5073598;28;20104;-60
2021/01/26 00:40:04;;;;;;;52.17;37.65;;;15.60;55.30;;;;;;5073522;28;20116;-60
2021/01/26 00:42:29;;;;;;;21.40;13.50;;;15.50;55.30;;;;;;5073094;28;20024;-57
2021/01/26 00:44:55;;;;;;;17.73;11.93;;;15.50;55.20;;;;;;5071823;28;20035;-62
2021/01/26 00:47:20;;;;;;;19.05;10.98;;;15.60;55.20;;;;;;5073198;28;20047;-60
2021/01/26 00:49:46;;;;;;;15.70;9.75;;;15.50;55.30;;;;;;5071976;28;20497;-59
2021/01/26 00:52:12;;;;;;;15.20;9.52;;;15.60;55.30;;;;;;5073065;28;20477;-59
2021/01/26 00:54:37;;;;;;;17.13;10.45;;;15.60;55.10;;;;;;5073256;28;20035;-59
2021/01/26 00:57:04;;;;;;;29.00;19.98;;;15.50;55.20;;;;;;5073227;28;20363;-61
2021/01/26 00:59:30;;;;;;;18.58;12.35;;;15.50;55.10;;;;;;5071732;28;20025;-59
2021/01/26 01:01:56;;;;;;;16.55;10.00;;;15.50;55.10;;;;;;5072933;28;20028;-60
2021/01/26 01:04:21;;;;;;;42.83;33.38;;;15.60;55.20;;;;;;5088275;28;20397;-61
2021/01/26 01:06:47;;;;;;;24.23;16.83;;;15.60;55.20;;;;;;5092266;28;20120;-61
2021/01/26 01:09:12;;;;;;;17.10;11.90;;;15.50;54.90;;;;;;5072019;28;20035;-60
2021/01/26 01:11:38;;;;;;;351.80;267.80;;;15.50;54.70;;;;;;5071873;28;20074;-60
2021/01/26 01:14:05;;;;;;;86.80;66.25;;;15.50;55.10;;;;;;5072659;28;20032;-60
2021/01/26 01:16:30;;;;;;;46.03;35.08;;;15.50;55.00;;;;;;5072303;28;20020;-61
2021/01/26 01:18:56;;;;;;;44.22;31.77;;;15.40;55.40;;;;;;5071648;28;20043;-58
2021/01/26 01:21:21;;;;;;;38.45;28.33;;;15.50;55.30;;;;;;5072671;28;20021;-59
2021/01/26 01:23:47;;;;;;;34.30;23.75;;;15.50;55.30;;;;;;5071985;28;20025;-59
2021/01/26 01:26:12;;;;;;;31.48;23.95;;;15.40;54.90;;;;;;5073034;28;20020;-58
2021/01/26 01:28:38;;;;;;;71.97;55.92;;;15.50;55.00;;;;;;5072780;28;20075;-60
2021/01/26 01:31:03;;;;;;;40.33;29.83;;;15.40;54.80;;;;;;5072344;28;20108;-59
2021/01/26 01:33:29;;;;;;;74.57;51.83;;;15.40;55.00;;;;;;5083013;28;20027;-59
2021/01/26 01:35:54;;;;;;;43.28;30.77;;;15.40;55.10;;;;;;5093310;28;20024;-61
2021/01/26 01:38:21;;;;;;;34.80;25.83;;;15.40;55.40;;;;;;5093441;28;20028;-59
2021/01/26 01:40:46;;;;;;;31.13;22.70;;;15.40;55.30;;;;;;5093128;28;20054;-61
2021/01/26 01:43:12;;;;;;;85.43;75.55;;;15.40;55.20;;;;;;5092509;28;20505;-60
2021/01/26 01:45:37;;;;;;;33.30;26.52;;;15.50;55.00;;;;;;5092434;28;20583;-59
2021/01/26 01:48:14;;;;;;;28.20;21.98;;;15.40;55.30;;;;;;5091062;28;20035;-61
2021/01/26 01:50:50;;;;;;;26.50;20.70;;;15.40;55.30;;;;;;5092581;28;20702;-60
2021/01/26 01:53:20;;;;;;;28.65;19.05;;;15.50;55.20;;;;;;5092209;28;20019;-60
2021/01/26 01:55:55;;;;;;;22.33;17.92;;;15.50;55.00;;;;;;5092321;28;20637;-60
2021/01/26 01:58:29;;;;;;;26.52;18.35;;;15.40;55.00;;;;;;5092393;28;20031;-61
2021/01/26 02:01:01;;;;;;;21.90;16.52;;;15.50;55.20;;;;;;5091876;28;20028;-63
2021/01/26 02:03:33;;;;;;;52.25;36.17;;;15.50;55.00;;;;;;5092138;28;20028;-60
2021/01/26 02:06:01;;;;;;;36.90;28.20;;;15.40;55.10;;;;;;5091933;28;20501;-61
2021/01/26 02:08:40;;;;;;;38.78;30.35;;;15.40;55.40;;;;;;5092136;28;20028;-61
2021/01/26 02:11:06;;;;;;;68.45;50.30;;;15.40;55.10;;;;;;5091750;28;20091;-61
2021/01/26 02:13:32;;;;;;;61.67;45.45;;;15.40;55.30;;;;;;5092016;28;20025;-60
2021/01/26 02:16:03;;;;;;;36.50;27.48;;;15.40;55.30;;;;;;5091017;28;20496;-59
2021/01/26 02:18:43;;;;;;;27.87;21.37;;;15.40;55.20;;;;;;5092178;28;20046;-59
2021/01/26 02:21:43;;;;;;;30.00;23.40;;;15.30;55.20;;;;;;5091809;28;20024;-61
2021/01/26 02:24:33;;;;;;;28.10;20.95;;;15.40;55.10;;;;;;5087995;28;20043;-60
2021/01/26 02:27:37;;;;;;;33.08;24.27;;;15.40;55.00;;;;;;5090532;28;20027;-60
2021/01/26 02:30:41;;;;;;;43.08;31.58;;;15.40;55.00;;;;;;5091441;28;20067;-59
2021/01/26 02:33:25;;;;;;;125.15;82.68;;;15.40;55.00;;;;;;5084566;28;20096;-60
2021/01/26 02:36:30;;;;;;;110.13;74.68;;;15.40;54.90;;;;;;5071183;28;20028;-59
2021/01/26 02:39:17;;;;;;;78.00;52.83;;;15.40;55.20;;;;;;5071409;28;20024;-61
2021/01/26 02:42:03;;;;;;;71.00;49.55;;;15.30;55.00;;;;;;5071356;28;20478;-60
2021/01/26 02:44:49;;;;;;;73.35;50.88;;;15.40;55.00;;;;;;5071563;28;20535;-59
2021/01/26 02:47:42;;;;;;;165.00;103.72;;;15.30;55.10;;;;;;5071404;28;20111;-58
2021/01/26 02:50:30;;;;;;;73.57;49.10;;;15.30;55.10;;;;;;5071491;28;20492;-61
2021/01/26 02:53:36;;;;;;;47.10;33.92;;;15.40;55.10;;;;;;5070678;28;20025;-59
2021/01/26 02:56:34;;;;;;;71.53;43.85;;;15.30;54.80;;;;;;5086888;28;20385;-60
2021/01/26 02:59:30;;;;;;;68.45;44.92;;;15.40;55.10;;;;;;5090301;28;20092;-60
2021/01/26 03:02:11;;;;;;;49.28;33.50;;;15.40;54.90;;;;;;5090582;28;20472;-59
2021/01/26 03:05:03;;;;;;;39.70;27.17;;;15.40;54.90;;;;;;5069915;28;20040;-61
2021/01/26 03:07:33;;;;;;;57.90;38.85;;;15.40;54.70;;;;;;5070258;28;20098;-59
2021/01/26 03:10:04;;;;;;;44.20;29.52;;;15.40;54.80;;;;;;5069204;28;20386;-60
2021/01/26 03:12:37;;;;;;;38.42;27.05;;;15.40;54.80;;;;;;5070351;28;20474;-59
2021/01/26 03:15:18;;;;;;;37.45;25.85;;;15.40;54.90;;;;;;5070033;28;20025;-59
2021/01/26 03:17:58;;;;;;;44.00;30.42;;;15.30;54.80;;;;;;5070346;28;20108;-60
2021/01/26 03:20:35;;;;;;;40.65;30.20;;;15.30;54.80;;;;;;5070364;28;20082;-60
2021/01/26 03:23:10;;;;;;;50.80;35.10;;;15.30;54.80;;;;;;5068852;28;20035;-59
2021/01/26 03:25:39;;;;;;;38.03;27.40;;;15.30;55.00;;;;;;5069672;28;20035;-60
2021/01/26 03:28:08;;;;;;;51.22;36.05;;;15.40;54.90;;;;;;5068967;28;20028;-58
2021/01/26 03:30:39;;;;;;;41.58;29.77;;;15.40;54.80;;;;;;5070273;28;20086;-60
2021/01/26 03:33:09;;;;;;;42.38;28.48;;;15.30;54.80;;;;;;5070211;28;20028;-59
2021/01/26 03:35:35;;;;;;;31.98;23.23;;;15.40;54.80;;;;;;5069558;28;20025;-59
2021/01/26 03:38:08;;;;;;;31.02;21.27;;;15.30;54.80;;;;;;5069143;28;20025;-59
2021/01/26 03:40:34;;;;;;;26.63;18.80;;;15.30;54.90;;;;;;5070423;28;20517;-58
2021/01/26 03:43:00;;;;;;;28.38;20.42;;;15.30;54.60;;;;;;5070156;28;20054;-60
2021/01/26 03:45:25;;;;;;;29.65;19.35;;;15.30;54.80;;;;;;5070101;28;20108;-58
2021/01/26 03:48:18;;;;;;;26.25;18.38;;;15.30;54.80;;;;;;5071109;28;20028;-59
2021/01/26 03:50:49;;;;;;;27.85;18.77;;;15.20;54.80;;;;;;5073351;28;20020;-61
2021/01/26 03:53:52;;;;;;;25.30;17.58;;;15.30;54.90;;;;;;5074346;28;20057;-59
2021/01/26 03:56:46;;;;;;;24.70;18.15;;;15.20;54.80;;;;;;5074414;28;20147;-61
2021/01/26 03:59:32;;;;;;;24.50;16.83;;;15.20;55.00;;;;;;5074272;28;20032;-59
2021/01/26 04:02:39;;;;;;;22.65;16.10;;;15.20;54.80;;;;;;5072652;28;20025;-58
2021/01/26 04:05:14;;;;;;;22.65;16.17;;;15.20;54.80;;;;;;5063639;28;20051;-59
2021/01/26 04:08:03;;;;;;;22.17;15.35;;;15.30;54.90;;;;;;5093226;28;20024;-59
2021/01/26 04:10:34;;;;;;;24.33;15.38;;;15.20;54.80;;;;;;5094623;28;20524;-59
2021/01/26 04:13:02;;;;;;;20.88;14.77;;;15.20;54.90;;;;;;5094291;28;20093;-60
2021/01/26 04:15:45;;;;;;;20.95;14.45;;;15.20;54.90;;;;;;5093988;28;20025;-63
2021/01/26 04:18:12;;;;;;;18.95;13.55;;;15.20;54.80;;;;;;5094393;28;20375;-59
2021/01/26 04:20:39;;;;;;;19.50;12.75;;;15.20;55.00;;;;;;5094523;28;20026;-59
2021/01/26 04:23:05;;;;;;;21.23;13.50;;;15.20;55.00;;;;;;5094334;28;20038;-59
2021/01/26 04:25:42;;;;;;;22.30;13.85;;;15.20;54.90;;;;;;5094407;28;20032;-59
2021/01/26 04:28:14;;;;;;;18.02;12.60;;;15.20;55.00;;;;;;5094299;28;20481;-57
2021/01/26 04:30:40;;;;;;;17.33;12.20;;;15.10;55.00;;;;;;5093689;28;20103;-57
2021/01/26 04:33:08;;;;;;;17.73;11.98;;;15.10;55.00;;;;;;5087013;28;20059;-60
2021/01/26 04:35:35;;;;;;;17.55;12.32;;;15.20;55.00;;;;;;5073695;28;20494;-59
2021/01/26 04:38:01;;;;;;;18.02;12.07;;;15.20;54.90;;;;;;5072414;28;20153;-57
2021/01/26 04:40:28;;;;;;;18.92;12.07;;;15.10;55.00;;;;;;5072388;28;20074;-58
2021/01/26 04:43:37;;;;;;;16.58;10.98;;;15.10;55.10;;;;;;5073170;28;20094;-60
2021/01/26 04:46:10;;;;;;;17.33;11.20;;;15.20;54.90;;;;;;5034033;28;20033;-60
2021/01/26 04:48:48;;;;;;;16.42;10.82;;;15.10;55.00;;;;;;5051081;28;20556;-62
2021/01/26 04:51:31;;;;;;;15.18;10.32;;;15.10;54.90;;;;;;5056808;28;20521;-60
2021/01/26 04:54:09;;;;;;;15.80;10.45;;;15.10;54.80;;;;;;5073345;28;20029;-58
2021/01/26 04:57:05;;;;;;;14.25;9.80;;;15.10;54.60;;;;;;5073268;28;20027;-58
2021/01/26 04:59:42;;;;;;;15.10;9.55;;;15.20;54.60;;;;;;5080989;28;20066;-60
2021/01/26 05:02:44;;;;;;;12.95;8.40;;;15.10;54.60;;;;;;5092890;28;20073;-59
2021/01/26 05:05:19;;;;;;;13.45;8.35;;;15.10;54.70;;;;;;5093305;28;20119;-58
2021/01/26 05:08:01;;;;;;;13.05;7.82;;;15.10;54.70;;;;;;5093268;28;20040;-61
2021/01/26 05:10:47;;;;;;;14.30;8.93;;;15.10;54.70;;;;;;5093365;28;20020;-59
2021/01/26 05:13:31;;;;;;;11.13;7.53;;;15.10;54.70;;;;;;5091588;28;20043;-60
2021/01/26 05:16:06;;;;;;;12.35;7.78;;;15.10;54.70;;;;;;5091361;28;20114;-61
2021/01/26 05:18:42;;;;;;;15.80;8.82;;;15.10;54.60;;;;;;5093124;28;20028;-58
2021/01/26 05:21:33;;;;;;;36.55;16.42;;;15.00;55.00;;;;;;5088323;28;20113;-58
2021/01/26 05:24:25;;;;;;;49.10;17.38;;;15.00;55.10;;;;;;5084592;28;20075;-65
2021/01/26 05:26:51;;;;;;;27.17;12.27;;;15.10;55.20;;;;;;5083050;28;21216;-60
2021/01/26 05:29:17;;;;;;;19.83;9.32;;;15.20;55.00;;;;;;5082981;28;20028;-59
2021/01/26 05:31:46;;;;;;;18.70;9.23;;;15.30;55.00;;;;;;5099623;28;20027;-60
2021/01/26 05:34:15;;;;;;;16.35;8.23;;;15.30;54.90;;;;;;5105718;28;20023;-59
2021/01/26 05:36:46;;;;;;;14.90;7.57;;;15.40;54.60;;;;;;5084689;28;20111;-59
2021/01/26 05:39:26;;;;;;;14.65;7.72;;;15.50;54.50;;;;;;5084964;28;20204;-59
2021/01/26 05:41:52;;;;;;;13.27;7.13;;;15.50;54.30;;;;;;5085735;28;20655;-56
2021/01/26 05:44:18;;;;;;;14.60;6.85;;;15.60;54.20;;;;;;5103154;28;20038;-58
2021/01/26 05:46:46;;;;;;;12.23;6.60;;;15.60;54.30;;;;;;5085390;28;20043;-59
2021/01/26 05:49:12;;;;;;;16.15;6.90;;;15.50;54.40;;;;;;5077873;28;20023;-62
2021/01/26 05:51:41;;;;;;;12.98;6.13;;;15.60;54.70;;;;;;5074021;28;20031;-59
2021/01/26 05:54:14;;;;;;;16.92;6.47;;;15.60;54.70;;;;;;5064984;28;20061;-60
2021/01/26 05:56:51;;;;;;;16.42;6.32;;;15.50;55.00;;;;;;5082648;28;20041;-60
2021/01/26 05:59:28;;;;;;;13.77;6.30;;;15.60;54.90;;;;;;5077212;28;20099;-61
2021/01/26 06:01:53;;;;;;;13.55;5.68;;;15.60;54.80;;;;;;5077395;28;20039;-63
2021/01/26 06:04:26;;;;;;;12.27;5.50;;;15.70;54.90;;;;;;5074944;28;20032;-61
2021/01/26 06:06:59;;;;;;;14.80;5.30;;;15.70;54.90;;;;;;5085820;28;20087;-58
2021/01/26 06:09:37;;;;;;;17.05;4.78;;;15.70;54.80;;;;;;5085467;28;20085;-60
2021/01/26 06:12:22;;;;;;;14.88;4.65;;;15.80;54.90;;;;;;5077997;28;20032;-60
2021/01/26 06:15:08;;;;;;;16.25;4.63;;;15.90;54.80;;;;;;5075101;28;20062;-62
2021/01/26 06:17:35;;;;;;;11.93;4.03;;;15.90;55.10;;;;;;5080960;28;20119;-61
2021/01/26 06:20:14;;;;;;;14.63;4.22;;;16.00;55.00;;;;;;5083803;28;20024;-59
2021/01/26 06:22:40;;;;;;;10.57;4.10;;;16.00;55.20;;;;;;5064991;28;20043;-59
2021/01/26 06:25:12;;;;;;;12.23;3.90;;;16.10;55.30;;;;;;5065930;28;20024;-62
2021/01/26 06:27:42;;;;;;;;;;;16.10;55.50;;;;;;5065877;28;20028;-62
2021/01/26 06:30:17;;;;;;;13.80;4.00;;;16.20;55.60;;;;;;5074619;28;20411;-60
2021/01/26 06:32:59;;;;;;;15.52;4.13;;;16.20;55.60;;;;;;5063532;28;20032;-60
2021/01/26 06:35:34;;;;;;;15.55;4.20;;;16.30;55.90;;;;;;5065739;28;20020;-61
2021/01/26 06:38:25;;;;;;;15.25;4.25;;;16.30;55.90;;;;;;5061921;28;20028;-60
2021/01/26 06:40:52;;;;;;;12.95;3.70;;;16.20;55.80;;;;;;5061605;28;20152;-63
2021/01/26 06:43:29;;;;;;;16.00;4.15;;;16.30;55.90;;;;;;5061769;28;20032;-60
2021/01/26 06:46:14;;;;;;;12.57;5.07;;;16.20;56.10;;;;;;5063409;28;20020;-60
2021/01/26 06:49:06;;;;;;;18.13;5.35;;;16.20;56.10;;;;;;5062432;28;20024;-60
2021/01/26 06:51:47;;;;;;;11.52;3.78;;;16.20;56.20;;;;;;5063313;28;20478;-63
2021/01/26 06:54:45;;;;;;;16.65;3.85;;;16.30;56.00;;;;;;5065638;28;20089;-61
2021/01/26 06:57:53;;;;;;;14.05;3.40;;;16.30;55.90;;;;;;5081768;28;20080;-60
2021/01/26 07:00:54;;;;;;;11.50;3.33;;;16.20;56.40;;;;;;5084767;28;20016;-60
2021/01/26 07:04:02;;;;;;;13.85;3.22;;;16.20;57.00;;;;;;5065668;28;20122;-59
2021/01/26 07:07:11;;;;;;;12.95;3.33;;;16.20;57.20;;;;;;5081766;28;20211;-59
2021/01/26 07:09:53;;;;;;;8.43;2.88;;;16.20;57.20;;;;;;5084758;28;20028;-60
2021/01/26 07:12:39;;;;;;;10.38;2.85;;;16.20;57.00;;;;;;5085065;28;20084;-59
2021/01/26 07:15:21;;;;;;;8.32;2.45;;;16.20;57.00;;;;;;5084781;28;20409;-61
2021/01/26 07:18:19;;;;;;;9.02;2.65;;;16.10;57.00;;;;;;5083590;28;20056;-60
2021/01/26 07:21:06;;;;;;;8.95;2.50;;;16.10;57.00;;;;;;5084945;28;20032;-60
2021/01/26 07:24:03;;;;;;;9.57;2.55;;;16.10;57.10;;;;;;5084138;28;20036;-59
2021/01/26 07:26:42;;;;;;;8.07;2.40;;;16.10;57.00;;;;;;5085021;28;20400;-61
2021/01/26 07:29:32;;;;;;;7.93;2.15;;;16.00;56.90;;;;;;5076090;28;20131;-60
2021/01/26 07:32:19;;;;;;;7.57;2.45;;;16.00;57.60;;;;;;5064502;28;20447;-60
2021/01/26 07:35:08;;;;;;;6.47;2.05;;;16.00;56.90;;;;;;5064592;28;20032;-59
2021/01/26 07:37:46;;;;;;;6.32;2.40;;;16.00;57.00;;;;;;5064493;28;20477;-59
2021/01/26 07:40:17;;;;;;;8.10;2.13;;;16.00;57.00;;;;;;5064225;28;20665;-59
2021/01/26 07:43:10;;;;;;;5.93;2.13;;;15.90;57.00;;;;;;5063985;28;20040;-60
2021/01/26 07:46:06;;;;;;;7.68;1.80;;;15.90;57.00;;;;;;5062746;28;20137;-59
2021/01/26 07:48:43;;;;;;;4.53;1.90;;;15.90;57.00;;;;;;5055041;28;20394;-62
2021/01/26 07:51:20;;;;;;;5.80;1.77;;;15.90;57.10;;;;;;5064134;28;20029;-59
2021/01/26 07:54:05;;;;;;;7.82;1.75;;;15.90;56.90;;;;;;5062730;28;20094;-60
2021/01/26 07:56:34;;;;;;;6.15;1.90;;;15.90;56.80;;;;;;5064004;28;20054;-63
2021/01/26 07:59:04;;;;;;;6.07;1.80;;;15.80;57.00;;;;;;5068077;28;20559;-60
2021/01/26 08:01:49;;;;;;;4.38;2.13;;;15.90;56.80;;;;;;5083682;28;20036;-60
2021/01/26 08:04:16;;;;;;;4.95;1.73;;;15.90;56.50;;;;;;5084064;28;20059;-59
2021/01/26 08:06:52;;;;;;;4.53;1.60;;;15.90;56.40;;;;;;5083198;28;20805;-62
2021/01/26 08:09:22;;;;;;;4.68;1.60;;;15.90;56.30;;;;;;5084198;28;20055;-62
2021/01/26 08:11:56;;;;;;;4.60;1.50;;;15.90;56.10;;;;;;5082442;28;20358;-62
2021/01/26 08:14:49;;;;;;;5.63;1.65;;;15.90;56.10;;;;;;5082740;28;20074;-60
2021/01/26 08:17:30;;;;;;;4.65;1.70;;;15.90;56.10;;;;;;5081046;28;20177;-60
2021/01/26 08:20:06;;;;;;;4.50;1.58;;;15.90;56.10;;;;;;5084024;28;20024;-61
2021/01/26 08:22:37;;;;;;;5.68;1.63;;;15.90;56.10;;;;;;5082736;28;20071;-61
2021/01/26 08:25:30;;;;;;;4.57;1.60;;;15.90;56.00;;;;;;5084223;28;20028;-60
2021/01/26 08:28:02;;;;;;;3.72;1.60;;;15.90;55.90;;;;;;5082312;28;20063;-60
2021/01/26 08:30:47;;;;;;;;;;;15.80;56.00;;;;;;5064750;28;20036;-60
2021/01/26 08:33:17;;;;;;;3.00;1.30;;;15.90;55.90;;;;;;5064659;28;19904;-62
2021/01/26 08:36:21;;;;;;;4.70;1.52;;;15.90;55.70;;;;;;5068043;28;20489;-61
2021/01/26 08:38:47;;;;;;;4.32;1.60;;;15.90;55.70;;;;;;5067708;28;20036;-60
2021/01/26 08:41:41;;;;;;;4.28;1.50;;;15.90;55.70;;;;;;5066260;28;20025;-61
2021/01/26 08:44:22;;;;;;;6.05;1.55;;;15.90;55.50;;;;;;5067640;28;20032;-60
2021/01/26 08:46:51;;;;;;;3.85;1.58;;;15.90;55.50;;;;;;5067060;28;20031;-59
2021/01/26 08:49:30;;;;;;;4.22;1.63;;;15.90;55.50;;;;;;5067321;28;20029;-62
2021/01/26 08:52:22;;;;;;;3.97;1.60;;;15.90;55.50;;;;;;5066995;28;20060;-61
2021/01/26 08:54:49;;;;;;;3.78;1.67;;;15.80;55.50;;;;;;5067161;28;20108;-60
2021/01/26 08:57:27;;;;;;;4.28;1.90;;;15.80;55.50;;;;;;5066972;28;20033;-59
2021/01/26 09:00:12;;;;;;;3.25;1.30;;;15.90;55.50;;;;;;5076985;28;20024;-59
2021/01/26 09:02:44;;;;;;;2.28;1.27;;;15.80;55.50;;;;;;5086352;28;20030;-60
2021/01/26 09:05:11;;;;;;;3.75;1.58;;;15.80;55.40;;;;;;5085447;28;20493;-60
2021/01/26 09:07:52;;;;;;;2.30;1.38;;;15.90;55.30;;;;;;5087068;28;20027;-62
2021/01/26 09:10:35;;;;;;;3.10;1.52;;;15.90;55.10;;;;;;5085246;28;20031;-62
2021/01/26 09:13:06;;;;;;;3.50;1.60;;;15.90;55.10;;;;;;5085494;28;20390;-60
2021/01/26 09:15:34;;;;;;;3.80;1.40;;;15.90;55.00;;;;;;5085915;28;20024;-59
2021/01/26 09:17:59;;;;;;;3.40;1.42;;;15.90;55.00;;;;;;5085045;28;20028;-59
2021/01/26 09:20:29;;;;;;;3.13;1.40;;;15.90;55.00;;;;;;5086937;28;20043;-59
2021/01/26 09:23:03;;;;;;;3.03;1.45;;;15.80;55.10;;;;;;5085089;28;20081;-60
2021/01/26 09:25:36;;;;;;;3.25;1.52;;;15.80;55.00;;;;;;5086921;28;20420;-65
2021/01/26 09:28:09;;;;;;;2.80;1.50;;;15.80;55.10;;;;;;5086567;28;20040;-63
2021/01/26 09:30:37;;;;;;;3.47;1.52;;;15.80;55.00;;;;;;5065823;28;20135;-62
2021/01/26 09:33:12;;;;;;;3.50;1.73;;;15.80;55.00;;;;;;5064633;28;20025;-61
2021/01/26 09:36:02;;;;;;;2.97;1.40;;;15.80;54.90;;;;;;5066076;28;20020;-60
2021/01/26 09:38:41;;;;;;;3.35;1.50;;;15.80;54.90;;;;;;5066422;28;20029;-58
2021/01/26 09:41:13;;;;;;;4.45;1.75;;;15.90;54.70;;;;;;5066047;28;20485;-59
2021/01/26 09:43:41;;;;;;;3.17;1.58;;;15.90;54.60;;;;;;5066398;28;20078;-58
2021/01/26 09:46:12;;;;;;;2.53;1.40;;;15.90;54.70;;;;;;5065006;28;20063;-60
2021/01/26 09:48:45;;;;;;;3.90;1.70;;;15.90;54.60;;;;;;5066178;28;20028;-59
2021/01/26 09:51:11;;;;;;;4.65;1.88;;;15.70;54.60;;;;;;5065912;28;20032;-60
2021/01/26 09:53:38;;;;;;;3.85;1.67;;;15.80;54.60;;;;;;5066168;28;20442;-59
2021/01/26 09:56:05;;;;;;;2.85;1.50;;;15.80;54.60;;;;;;5064724;28;20524;-60
2021/01/26 09:58:31;;;;;;;3.40;1.60;;;15.80;54.50;;;;;;5065965;28;20420;-61
2021/01/26 10:00:57;;;;;;;3.75;2.00;;;15.80;54.40;;;;;;5076045;28;20848;-59
2021/01/26 10:03:24;;;;;;;4.10;1.60;;;15.80;54.50;;;;;;5084696;28;20481;-59
2021/01/26 10:05:56;;;;;;;3.45;1.50;;;15.70;54.60;;;;;;5085931;28;20089;-59
2021/01/26 10:08:34;;;;;;;2.72;1.52;;;15.70;54.50;;;;;;5086105;28;20055;-63
2021/01/26 10:11:22;;;;;;;3.28;1.70;;;15.80;54.30;;;;;;5084320;28;20030;-60
2021/01/26 10:13:48;;;;;;;4.45;1.83;;;15.80;54.40;;;;;;5086145;28;20020;-59
2021/01/26 10:16:36;;;;;;;3.55;1.70;;;15.80;54.30;;;;;;5085300;28;20020;-61
2021/01/26 10:19:28;;;;;;;3.55;1.60;;;15.80;54.20;;;;;;5085883;28;20036;-59
2021/01/26 10:22:03;;;;;;;3.72;1.70;;;15.70;54.30;;;;;;5085068;28;20036;-60
2021/01/26 10:24:32;;;;;;;3.63;1.55;;;15.70;54.30;;;;;;5085946;28;20030;-60
2021/01/26 10:27:06;;;;;;;3.72;2.00;;;15.70;54.20;;;;;;5085725;28;20043;-62
2021/01/26 10:29:40;;;;;;;3.90;1.77;;;15.70;54.20;;;;;;5073589;28;20032;-60
2021/01/26 10:32:09;;;;;;;4.28;1.75;;;15.70;54.20;;;;;;5063392;28;20024;-60
2021/01/26 10:34:39;;;;;;;3.25;1.60;;;15.70;54.20;;;;;;5065435;28;20496;-60
2021/01/26 10:37:16;;;;;;;3.53;1.90;;;15.70;54.60;;;;;;5065086;28;20099;-60
2021/01/26 10:39:43;;;;;;;4.97;2.00;;;15.70;54.00;;;;;;5065359;28;20063;-59
2021/01/26 10:42:22;;;;;;;3.95;1.90;;;15.70;54.00;;;;;;5064860;28;20036;-59
2021/01/26 10:44:51;;;;;;;3.28;1.70;;;15.70;54.10;;;;;;5065187;28;20297;-59
2021/01/26 10:47:36;;;;;;;3.97;1.95;;;15.70;54.10;;;;;;5064663;28;20825;-59
2021/01/26 10:50:04;;;;;;;3.90;1.77;;;15.60;54.10;;;;;;5064966;28;20038;-60
2021/01/26 10:52:48;;;;;;;4.47;2.03;;;15.60;54.10;;;;;;5064717;28;20024;-62
2021/01/26 10:55:20;;;;;;;3.42;1.80;;;15.70;54.10;;;;;;5065238;28;20104;-59
2021/01/26 10:57:46;;;;;;;4.15;2.00;;;15.60;54.10;;;;;;5063710;28;20039;-60
2021/01/26 11:00:15;;;;;;;4.28;2.00;;;15.60;54.20;;;;;;5078576;28;20405;-60
2021/01/26 11:02:40;;;;;;;3.30;1.80;;;15.60;54.20;;;;;;5083294;28;20081;-58
2021/01/26 11:05:08;;;;;;;4.68;1.90;;;15.60;54.20;;;;;;5083505;28;20036;-60
2021/01/26 11:07:34;;;;;;;3.95;1.80;;;15.60;54.00;;;;;;5083431;28;20377;-62
2021/01/26 11:09:59;;;;;;;3.90;1.75;;;15.70;53.90;;;;;;5085151;28;20088;-61
2021/01/26 11:12:25;;;;;;;3.17;1.75;;;15.70;53.90;;;;;;5083370;28;20082;-62
2021/01/26 11:14:54;;;;;;;4.15;1.95;;;15.60;53.90;;;;;;5083535;28;20036;-60
2021/01/26 11:17:20;;;;;;;3.67;2.08;;;15.70;53.90;;;;;;5084575;28;20016;-60
2021/01/26 11:19:49;;;;;;;3.22;1.73;;;15.60;54.10;;;;;;5084605;28;20024;-60
2021/01/26 11:22:16;;;;;;;3.17;1.55;;;15.60;54.00;;;;;;5083173;28;20032;-59
2021/01/26 11:24:43;;;;;;;4.00;1.88;;;15.70;54.00;;;;;;5082996;28;20046;-62
2021/01/26 11:27:09;;;;;;;5.13;2.10;;;15.50;54.10;;;;;;5084701;28;20028;-60
2021/01/26 11:29:35;;;;;;;3.50;1.80;;;15.60;54.10;;;;;;5073594;28;20036;-59
2021/01/26 11:32:01;;;;;;;3.60;1.90;;;15.60;54.00;;;;;;5064236;28;20093;-59
2021/01/26 11:34:27;;;;;;;3.95;1.98;;;15.60;54.50;;;;;;5064418;28;20020;-59
2021/01/26 11:36:52;;;;;;;4.90;1.83;;;15.70;54.80;;;;;;5064517;28;20070;-60
2021/01/26 11:39:18;;;;;;;3.50;1.60;;;15.70;54.60;;;;;;5064334;28;20549;-63
2021/01/26 11:41:43;;;;;;;4.05;1.63;;;15.70;54.70;;;;;;5062734;28;20036;-60
2021/01/26 11:44:09;;;;;;;2.78;1.65;;;15.70;54.50;;;;;;5062795;28;20115;-62
2021/01/26 11:46:34;;;;;;;4.13;1.90;;;15.80;54.30;;;;;;5062595;28;20035;-60
2021/01/26 11:49:00;;;;;;;3.13;1.63;;;15.80;54.30;;;;;;5064284;28;20036;-62
2021/01/26 11:51:26;;;;;;;2.72;1.60;;;15.80;54.30;;;;;;5064027;28;20424;-61
2021/01/26 11:53:53;;;;;;;3.72;1.98;;;15.80;54.30;;;;;;5064405;28;20074;-63
2021/01/26 11:56:21;;;;;;;3.15;1.77;;;15.80;54.10;;;;;;5062503;28;20030;-60
2021/01/26 11:58:47;;;;;;;2.75;1.50;;;15.80;54.20;;;;;;5066024;28;20024;-59
2021/01/26 12:01:13;;;;;;;3.88;1.60;;;15.90;54.00;;;;;;5083893;28;20035;-60
2021/01/26 12:03:39;;;;;;;3.53;1.60;;;15.90;54.00;;;;;;5083951;28;20028;-60
2021/01/26 12:06:04;;;;;;;3.58;1.70;;;16.00;54.00;;;;;;5084240;28;20036;-61
2021/01/26 12:08:30;;;;;;;2.67;1.45;;;16.00;53.90;;;;;;5083837;28;20031;-62
2021/01/26 12:10:56;;;;;;;2.97;1.65;;;15.90;53.80;;;;;;5087645;28;20099;-60
2021/01/26 12:13:22;;;;;;;3.15;1.60;;;15.90;53.80;;;;;;5088255;28;20056;-62
2021/01/26 12:15:47;;;;;;;2.83;1.65;;;16.00;54.00;;;;;;5088174;28;20028;-60
2021/01/26 12:18:14;;;;;;;5.53;1.85;;;15.90;53.80;;;;;;5088141;28;20028;-62
2021/01/26 12:20:39;;;;;;;4.15;1.83;;;16.00;53.80;;;;;;5088162;28;20035;-59
2021/01/26 12:23:05;;;;;;;3.08;1.70;;;16.00;53.80;;;;;;5088053;28;20464;-60
2021/01/26 12:25:32;;;;;;;2.30;1.40;;;16.00;53.70;;;;;;5086421;28;20075;-61
2021/01/26 12:27:57;;;;;;;3.00;1.48;;;16.00;53.50;;;;;;5086468;28;20024;-63
2021/01/26 12:30:24;;;;;;;3.55;1.60;;;16.00;53.60;;;;;;5069858;28;20028;-60
2021/01/26 12:32:50;;;;;;;3.55;1.58;;;16.00;53.60;;;;;;5067091;28;20505;-61
2021/01/26 12:35:20;;;;;;;3.10;1.65;;;16.00;53.60;;;;;;5067519;28;20085;-60
2021/01/26 12:37:46;;;;;;;3.53;1.70;;;16.00;53.40;;;;;;5067602;28;20477;-60
2021/01/26 12:40:12;;;;;;;3.58;1.67;;;16.00;53.50;;;;;;5067492;28;20081;-61
2021/01/26 12:42:39;;;;;;;3.03;1.63;;;16.00;53.60;;;;;;5067324;28;20059;-60
2021/01/26 12:45:06;;;;;;;2.80;1.63;;;16.10;53.50;;;;;;5067377;28;20366;-61
2021/01/26 12:47:32;;;;;;;2.42;1.40;;;16.10;53.80;;;;;;5067112;28;20486;-58
2021/01/26 12:49:58;;;;;;;3.08;1.65;;;16.10;53.50;;;;;;5065700;28;20032;-62
2021/01/26 12:52:24;;;;;;;3.65;1.90;;;16.10;53.50;;;;;;5065951;28;20081;-60
2021/01/26 12:54:50;;;;;;;2.90;1.50;;;16.10;53.10;;;;;;5065566;28;20018;-63
2021/01/26 12:57:16;;;;;;;2.67;1.52;;;16.10;53.20;;;;;;5065877;28;20119;-60
2021/01/26 12:59:42;;;;;;;4.18;1.80;;;16.20;52.80;;;;;;5076722;28;20103;-61
2021/01/26 13:02:07;;;;;;;3.22;1.40;;;16.20;52.90;;;;;;5085475;28;20028;-60
2021/01/26 13:04:33;;;;;;;3.47;1.75;;;16.20;52.90;;;;;;5087254;28;20222;-60
2021/01/26 13:06:58;;;;;;;3.28;1.70;;;16.30;52.70;;;;;;5085681;28;20059;-60
2021/01/26 13:09:24;;;;;;;2.92;1.60;;;16.30;52.70;;;;;;5086975;28;20024;-61
2021/01/26 13:11:50;;;;;;;3.45;1.83;;;16.30;52.80;;;;;;5085408;28;20024;-60
2021/01/26 13:14:15;;;;;;;2.50;1.35;;;16.30;52.70;;;;;;5087417;28;20020;-60